sensor_id;sensor_type;location;lat;lon;timestamp;pressure;altitude;pressure_sealevel;temperature;humidity
72636;BME280;60679;48.888;15.544;2023-12-20T00:01:39;95847.13;;;6.57;54.61
72636;BME280;60679;48.888;15.544;2023-12-20T00:04:04;95847.09;;;6.63;54.63
72636;BME280;60679;48.888;15.544;2023-12-20T00:06:30;95850.22;;;6.60;54.82
72636;BME280;60679;48.888;15.544;2023-12-20T00:08:56;95856.19;;;6.62;54.86
72636;BME280;60679;48.888;15.544;2023-12-20T00:11:23;95848.75;;;6.58;54.79
72636;BME280;60679;48.888;15.544;2023-12-20T00:13:48;95844.66;;;6.55;54.90
72636;BME280;60679;48.888;15.544;2023-12-20T00:16:13;95833.13;;;6.55;55.08
72636;BME280;60679;48.888;15.544;2023-12-20T00:18:39;95828.56;;;6.62;54.82
72636;BME280;60679;48.888;15.544;2023-12-20T00:21:04;95826.09;;;6.60;54.89
72636;BME280;60679;48.888;15.544;2023-12-20T00:23:30;95830.63;;;6.53;54.96
72636;BME280;60679;48.888;15.544;2023-12-20T00:25:55;95825.31;;;6.40;54.93
72636;BME280;60679;48.888;15.544;2023-12-20T00:28:21;95809.84;;;6.29;55.28
72636;BME280;60679;48.888;15.544;2023-12-20T00:30:47;95819.31;;;6.25;55.33
72636;BME280;60679;48.888;15.544;2023-12-20T00:33:12;95812.91;;;6.32;55.23
72636;BME280;60679;48.888;15.544;2023-12-20T00:35:37;95809.44;;;6.32;55.11
72636;BME280;60679;48.888;15.544;2023-12-20T00:38:03;95807.34;;;6.27;55.07
72636;BME280;60679;48.888;15.544;2023-12-20T00:40:30;95815.84;;;6.18;55.25
72636;BME280;60679;48.888;15.544;2023-12-20T00:42:55;95804.06;;;6.19;55.16
72636;BME280;60679;48.888;15.544;2023-12-20T00:45:20;95801.81;;;6.09;55.45
72636;BME280;60679;48.888;15.544;2023-12-20T00:47:46;95792.53;;;6.05;55.61
72636;BME280;60679;48.888;15.544;2023-12-20T00:50:11;95801.41;;;6.06;55.69
72636;BME280;60679;48.888;15.544;2023-12-20T00:52:37;95800.16;;;6.02;55.46
72636;BME280;60679;48.888;15.544;2023-12-20T00:55:02;95789.47;;;5.95;55.70
72636;BME280;60679;48.888;15.544;2023-12-20T00:57:29;95804.69;;;5.88;55.58
72636;BME280;60679;48.888;15.544;2023-12-20T00:59:54;95795.59;;;5.82;55.78
72636;BME280;60679;48.888;15.544;2023-12-20T01:02:19;95796.00;;;5.79;55.82
72636;BME280;60679;48.888;15.544;2023-12-20T01:04:45;95788.38;;;5.76;55.96
72636;BME280;60679;48.888;15.544;2023-12-20T01:07:10;95786.31;;;5.65;55.99
72636;BME280;60679;48.888;15.544;2023-12-20T01:09:35;95787.78;;;5.61;56.07
72636;BME280;60679;48.888;15.544;2023-12-20T01:12:01;95789.22;;;5.57;56.13
72636;BME280;60679;48.888;15.544;2023-12-20T01:14:26;95798.88;;;5.52;56.23
72636;BME280;60679;48.888;15.544;2023-12-20T01:16:51;95790.25;;;5.50;56.17
72636;BME280;60679;48.888;15.544;2023-12-20T01:19:17;95786.94;;;5.54;56.09
72636;BME280;60679;48.888;15.544;2023-12-20T01:21:42;95781.16;;;5.51;56.22
72636;BME280;60679;48.888;15.544;2023-12-20T01:24:07;95786.13;;;5.47;56.33
72636;BME280;60679;48.888;15.544;2023-12-20T01:26:33;95778.28;;;5.52;56.35
72636;BME280;60679;48.888;15.544;2023-12-20T01:28:58;95782.22;;;5.69;56.31
72636;BME280;60679;48.888;15.544;2023-12-20T01:31:24;95777.25;;;5.79;56.10
72636;BME280;60679;48.888;15.544;2023-12-20T01:33:49;95781.84;;;5.86;56.19
72636;BME280;60679;48.888;15.544;2023-12-20T01:36:14;95778.50;;;5.77;56.02
72636;BME280;60679;48.888;15.544;2023-12-20T01:38:40;95769.44;;;5.65;56.26
72636;BME280;60679;48.888;15.544;2023-12-20T01:41:05;95754.63;;;5.56;56.41
72636;BME280;60679;48.888;15.544;2023-12-20T01:43:30;95750.88;;;5.57;56.36
72636;BME280;60679;48.888;15.544;2023-12-20T01:45:57;95745.75;;;5.55;56.45
72636;BME280;60679;48.888;15.544;2023-12-20T01:48:24;95740.41;;;5.55;56.30
72636;BME280;60679;48.888;15.544;2023-12-20T01:50:50;95732.75;;;5.59;56.48
72636;BME280;60679;48.888;15.544;2023-12-20T01:53:16;95733.81;;;5.58;56.52
72636;BME280;60679;48.888;15.544;2023-12-20T01:55:44;95723.28;;;5.56;56.40
72636;BME280;60679;48.888;15.544;2023-12-20T01:58:11;95714.44;;;5.49;56.37
72636;BME280;60679;48.888;15.544;2023-12-20T02:00:37;95726.56;;;5.45;56.71
72636;BME280;60679;48.888;15.544;2023-12-20T02:03:03;95721.84;;;5.47;56.58
72636;BME280;60679;48.888;15.544;2023-12-20T02:05:33;95719.59;;;5.44;56.34
72636;BME280;60679;48.888;15.544;2023-12-20T02:07:59;95733.38;;;5.48;56.60
72636;BME280;60679;48.888;15.544;2023-12-20T02:10:24;95732.97;;;5.51;56.61
72636;BME280;60679;48.888;15.544;2023-12-20T02:12:50;95736.03;;;5.48;56.52
72636;BME280;60679;48.888;15.544;2023-12-20T02:15:16;95720.19;;;5.46;56.57
72636;BME280;60679;48.888;15.544;2023-12-20T02:17:41;95717.94;;;5.50;56.56
72636;BME280;60679;48.888;15.544;2023-12-20T02:20:08;95732.56;;;5.54;56.42
72636;BME280;60679;48.888;15.544;2023-12-20T02:22:33;95741.00;;;5.57;56.67
72636;BME280;60679;48.888;15.544;2023-12-20T02:24:59;95717.09;;;5.62;56.54
72636;BME280;60679;48.888;15.544;2023-12-20T02:27:24;95719.19;;;5.67;56.70
72636;BME280;60679;48.888;15.544;2023-12-20T02:29:50;95721.63;;;5.68;56.47
72636;BME280;60679;48.888;15.544;2023-12-20T02:32:17;95711.53;;;5.70;56.34
72636;BME280;60679;48.888;15.544;2023-12-20T02:34:43;95705.16;;;5.71;56.45
72636;BME280;60679;48.888;15.544;2023-12-20T02:37:08;95702.88;;;5.68;56.45
72636;BME280;60679;48.888;15.544;2023-12-20T02:39:33;95698.78;;;5.66;56.50
72636;BME280;60679;48.888;15.544;2023-12-20T02:41:59;95708.06;;;5.70;56.46
72636;BME280;60679;48.888;15.544;2023-12-20T02:44:24;95697.53;;;5.68;56.42
72636;BME280;60679;48.888;15.544;2023-12-20T02:46:50;95706.41;;;5.69;56.62
72636;BME280;60679;48.888;15.544;2023-12-20T02:49:15;95705.16;;;5.71;56.63
72636;BME280;60679;48.888;15.544;2023-12-20T02:51:40;95715.66;;;5.73;56.45
72636;BME280;60679;48.888;15.544;2023-12-20T02:54:06;95711.94;;;5.74;56.63
72636;BME280;60679;48.888;15.544;2023-12-20T02:56:34;95694.22;;;5.73;56.62
72636;BME280;60679;48.888;15.544;2023-12-20T02:58:59;95687.00;;;5.73;56.56
72636;BME280;60679;48.888;15.544;2023-12-20T03:01:26;95688.88;;;5.66;56.73
72636;BME280;60679;48.888;15.544;2023-12-20T03:03:51;95669.31;;;5.59;56.64
72636;BME280;60679;48.888;15.544;2023-12-20T03:06:18;95676.13;;;5.55;56.87
72636;BME280;60679;48.888;15.544;2023-12-20T03:08:44;95682.31;;;5.56;56.79
72636;BME280;60679;48.888;15.544;2023-12-20T03:11:09;95685.41;;;5.53;56.84
72636;BME280;60679;48.888;15.544;2023-12-20T03:13:34;95680.84;;;5.53;57.04
72636;BME280;60679;48.888;15.544;2023-12-20T03:16:00;95674.88;;;5.51;56.98
72636;BME280;60679;48.888;15.544;2023-12-20T03:18:25;95679.00;;;5.54;56.94
72636;BME280;60679;48.888;15.544;2023-12-20T03:20:53;95664.41;;;5.50;56.96
72636;BME280;60679;48.888;15.544;2023-12-20T03:23:18;95676.13;;;5.49;57.12
72636;BME280;60679;48.888;15.544;2023-12-20T03:25:43;95675.94;;;5.50;57.21
72636;BME280;60679;48.888;15.544;2023-12-20T03:28:09;95687.25;;;5.52;57.25
72636;BME280;60679;48.888;15.544;2023-12-20T03:30:34;95690.94;;;5.51;57.17
72636;BME280;60679;48.888;15.544;2023-12-20T03:33:00;95700.44;;;5.47;57.25
72636;BME280;60679;48.888;15.544;2023-12-20T03:35:25;95687.84;;;5.48;57.20
72636;BME280;60679;48.888;15.544;2023-12-20T03:37:50;95683.31;;;5.48;57.49
72636;BME280;60679;48.888;15.544;2023-12-20T03:40:16;95688.25;;;5.45;57.62
72636;BME280;60679;48.888;15.544;2023-12-20T03:42:41;95685.19;;;5.48;57.62
72636;BME280;60679;48.888;15.544;2023-12-20T03:45:07;95683.53;;;5.47;57.64
72636;BME280;60679;48.888;15.544;2023-12-20T03:47:32;95689.50;;;5.49;57.78
72636;BME280;60679;48.888;15.544;2023-12-20T03:49:58;95690.53;;;5.48;57.76
72636;BME280;60679;48.888;15.544;2023-12-20T03:52:23;95692.81;;;5.44;57.84
72636;BME280;60679;48.888;15.544;2023-12-20T03:54:48;95683.94;;;5.37;58.11
72636;BME280;60679;48.888;15.544;2023-12-20T03:57:13;95681.09;;;5.39;58.12
72636;BME280;60679;48.888;15.544;2023-12-20T03:59:39;95672.22;;;5.38;58.17
72636;BME280;60679;48.888;15.544;2023-12-20T04:02:04;95689.13;;;5.39;58.43
72636;BME280;60679;48.888;15.544;2023-12-20T04:04:30;95691.56;;;5.34;58.44
72636;BME280;60679;48.888;15.544;2023-12-20T04:06:55;95701.66;;;5.32;58.55
72636;BME280;60679;48.888;15.544;2023-12-20T04:09:20;95694.25;;;5.27;58.62
72636;BME280;60679;48.888;15.544;2023-12-20T04:11:46;95680.66;;;5.29;58.87
72636;BME280;60679;48.888;15.544;2023-12-20T04:14:11;95684.56;;;5.33;59.02
72636;BME280;60679;48.888;15.544;2023-12-20T04:16:36;95698.78;;;5.33;58.88
72636;BME280;60679;48.888;15.544;2023-12-20T04:19:02;95700.22;;;5.29;59.18
72636;BME280;60679;48.888;15.544;2023-12-20T04:21:27;95694.25;;;5.27;59.17
72636;BME280;60679;48.888;15.544;2023-12-20T04:23:53;95678.19;;;5.27;59.25
72636;BME280;60679;48.888;15.544;2023-12-20T04:26:18;95673.44;;;5.29;59.43
72636;BME280;60679;48.888;15.544;2023-12-20T04:28:43;95666.25;;;5.30;59.61
72636;BME280;60679;48.888;15.544;2023-12-20T04:31:09;95664.78;;;5.34;59.79
72636;BME280;60679;48.888;15.544;2023-12-20T04:33:34;95678.16;;;5.34;59.92
72636;BME280;60679;48.888;15.544;2023-12-20T04:35:59;95681.47;;;5.29;59.75
72636;BME280;60679;48.888;15.544;2023-12-20T04:38:25;95679.22;;;5.26;60.03
72636;BME280;60679;48.888;15.544;2023-12-20T04:40:51;95678.78;;;5.22;60.00
72636;BME280;60679;48.888;15.544;2023-12-20T04:43:17;95678.59;;;5.17;60.20
72636;BME280;60679;48.888;15.544;2023-12-20T04:45:42;95686.84;;;5.16;60.35
72636;BME280;60679;48.888;15.544;2023-12-20T04:48:07;95694.66;;;5.17;60.50
72636;BME280;60679;48.888;15.544;2023-12-20T04:50:33;95690.75;;;5.13;60.68
72636;BME280;60679;48.888;15.544;2023-12-20T04:52:58;95684.34;;;5.14;60.48
72636;BME280;60679;48.888;15.544;2023-12-20T04:55:24;95681.88;;;5.06;60.76
72636;BME280;60679;48.888;15.544;2023-12-20T04:57:49;95680.66;;;5.02;61.06
72636;BME280;60679;48.888;15.544;2023-12-20T05:00:15;95690.28;;;4.97;61.19
72636;BME280;60679;48.888;15.544;2023-12-20T05:02:41;95697.25;;;4.91;61.42
72636;BME280;60679;48.888;15.544;2023-12-20T05:05:07;95692.13;;;4.77;61.34
72636;BME280;60679;48.888;15.544;2023-12-20T05:07:32;95696.97;;;4.53;61.82
72636;BME280;60679;48.888;15.544;2023-12-20T05:09:58;95686.44;;;4.39;61.90
72636;BME280;60679;48.888;15.544;2023-12-20T05:12:24;95692.13;;;4.29;62.30
72636;BME280;60679;48.888;15.544;2023-12-20T05:14:51;95692.97;;;4.23;62.22
72636;BME280;60679;48.888;15.544;2023-12-20T05:17:17;95693.75;;;4.17;62.39
72636;BME280;60679;48.888;15.544;2023-12-20T05:19:42;95690.25;;;4.17;62.76
72636;BME280;60679;48.888;15.544;2023-12-20T05:22:07;95694.13;;;4.14;62.86
72636;BME280;60679;48.888;15.544;2023-12-20T05:24:33;95695.97;;;4.14;62.87
72636;BME280;60679;48.888;15.544;2023-12-20T05:26:58;95704.16;;;4.12;62.82
72636;BME280;60679;48.888;15.544;2023-12-20T05:29:23;95702.09;;;4.07;63.11
72636;BME280;60679;48.888;15.544;2023-12-20T05:31:49;95702.72;;;4.03;63.00
72636;BME280;60679;48.888;15.544;2023-12-20T05:34:14;95697.94;;;3.98;63.16
72636;BME280;60679;48.888;15.544;2023-12-20T05:36:39;95691.78;;;3.98;63.52
72636;BME280;60679;48.888;15.544;2023-12-20T05:39:05;95684.19;;;3.95;63.53
72636;BME280;60679;48.888;15.544;2023-12-20T05:41:30;95691.53;;;3.93;63.47
72636;BME280;60679;48.888;15.544;2023-12-20T05:43:56;95695.25;;;3.92;63.67
72636;BME280;60679;48.888;15.544;2023-12-20T05:46:23;95703.06;;;3.93;63.79
72636;BME280;60679;48.888;15.544;2023-12-20T05:48:49;95712.34;;;4.04;63.78
72636;BME280;60679;48.888;15.544;2023-12-20T05:51:14;95713.84;;;4.13;63.66
72636;BME280;60679;48.888;15.544;2023-12-20T05:53:40;95712.22;;;4.19;63.56
72636;BME280;60679;48.888;15.544;2023-12-20T05:56:05;95700.13;;;4.23;63.52
72636;BME280;60679;48.888;15.544;2023-12-20T05:58:35;95694.97;;;4.21;63.49
72636;BME280;60679;48.888;15.544;2023-12-20T06:01:00;95698.69;;;4.20;63.75
72636;BME280;60679;48.888;15.544;2023-12-20T06:03:25;95701.38;;;4.20;63.61
72636;BME280;60679;48.888;15.544;2023-12-20T06:05:51;95708.31;;;4.15;63.95
72636;BME280;60679;48.888;15.544;2023-12-20T06:08:16;95717.13;;;4.15;63.85
72636;BME280;60679;48.888;15.544;2023-12-20T06:10:41;95712.41;;;4.11;64.03
72636;BME280;60679;48.888;15.544;2023-12-20T06:13:07;95706.75;;;3.92;64.28
72636;BME280;60679;48.888;15.544;2023-12-20T06:15:32;95717.41;;;3.92;64.32
72636;BME280;60679;48.888;15.544;2023-12-20T06:17:58;95727.72;;;3.95;64.46
72636;BME280;60679;48.888;15.544;2023-12-20T06:20:24;95732.38;;;3.87;64.59
72636;BME280;60679;48.888;15.544;2023-12-20T06:22:50;95748.38;;;3.80;64.57
72636;BME280;60679;48.888;15.544;2023-12-20T06:25:16;95748.81;;;3.84;64.86
72636;BME280;60679;48.888;15.544;2023-12-20T06:27:41;95749.84;;;3.83;64.84
72636;BME280;60679;48.888;15.544;2023-12-20T06:30:07;95750.69;;;3.90;64.75
72636;BME280;60679;48.888;15.544;2023-12-20T06:32:34;95752.78;;;3.94;64.55
72636;BME280;60679;48.888;15.544;2023-12-20T06:35:00;95748.00;;;3.90;64.83
72636;BME280;60679;48.888;15.544;2023-12-20T06:37:25;95754.34;;;3.82;64.75
72636;BME280;60679;48.888;15.544;2023-12-20T06:39:50;95751.06;;;3.80;65.00
72636;BME280;60679;48.888;15.544;2023-12-20T06:42:16;95750.44;;;3.85;65.16
72636;BME280;60679;48.888;15.544;2023-12-20T06:44:41;95754.97;;;3.84;65.07
72636;BME280;60679;48.888;15.544;2023-12-20T06:47:08;95737.88;;;3.79;65.24
72636;BME280;60679;48.888;15.544;2023-12-20T06:49:33;95741.66;;;3.91;65.16
72636;BME280;60679;48.888;15.544;2023-12-20T06:51:58;95740.88;;;3.97;65.03
72636;BME280;60679;48.888;15.544;2023-12-20T06:54:24;95736.16;;;3.99;64.94
72636;BME280;60679;48.888;15.544;2023-12-20T06:56:50;95746.03;;;3.98;65.18
72636;BME280;60679;48.888;15.544;2023-12-20T06:59:15;95745.25;;;4.04;65.11
72636;BME280;60679;48.888;15.544;2023-12-20T07:01:41;95749.75;;;4.04;65.04
72636;BME280;60679;48.888;15.544;2023-12-20T07:04:06;95744.22;;;4.05;65.42
72636;BME280;60679;48.888;15.544;2023-12-20T07:06:31;95744.91;;;4.14;65.13
72636;BME280;60679;48.888;15.544;2023-12-20T07:08:57;95743.28;;;4.20;64.89
72636;BME280;60679;48.888;15.544;2023-12-20T07:11:22;95745.13;;;4.19;65.16
72636;BME280;60679;48.888;15.544;2023-12-20T07:13:48;95750.41;;;4.13;65.18
72636;BME280;60679;48.888;15.544;2023-12-20T07:16:14;95748.34;;;4.08;65.39
72636;BME280;60679;48.888;15.544;2023-12-20T07:18:40;95752.47;;;4.11;65.37
72636;BME280;60679;48.888;15.544;2023-12-20T07:21:05;95752.00;;;4.00;65.27
72636;BME280;60679;48.888;15.544;2023-12-20T07:23:33;95755.25;;;3.96;65.32
72636;BME280;60679;48.888;15.544;2023-12-20T07:25:58;95762.78;;;3.86;65.47
72636;BME280;60679;48.888;15.544;2023-12-20T07:28:25;95766.41;;;3.78;65.78
72636;BME280;60679;48.888;15.544;2023-12-20T07:30:50;95770.50;;;3.74;65.53
72636;BME280;60679;48.888;15.544;2023-12-20T07:33:15;95773.94;;;3.68;65.61
72636;BME280;60679;48.888;15.544;2023-12-20T07:35:41;95779.03;;;3.63;65.86
72636;BME280;60679;48.888;15.544;2023-12-20T07:38:06;95776.75;;;3.60;65.70
72636;BME280;60679;48.888;15.544;2023-12-20T07:40:32;95790.69;;;3.56;66.03
72636;BME280;60679;48.888;15.544;2023-12-20T07:42:57;95795.38;;;3.54;66.11
72636;BME280;60679;48.888;15.544;2023-12-20T07:45:23;95798.25;;;3.52;66.07
72636;BME280;60679;48.888;15.544;2023-12-20T07:47:48;95802.94;;;3.50;65.95
72636;BME280;60679;48.888;15.544;2023-12-20T07:50:15;95807.91;;;3.53;66.11
72636;BME280;60679;48.888;15.544;2023-12-20T07:52:40;95811.00;;;3.57;66.13
72636;BME280;60679;48.888;15.544;2023-12-20T07:55:06;95807.34;;;3.58;66.25
72636;BME280;60679;48.888;15.544;2023-12-20T07:57:32;95805.50;;;3.58;66.15
72636;BME280;60679;48.888;15.544;2023-12-20T07:59:57;95808.59;;;3.62;66.26
72636;BME280;60679;48.888;15.544;2023-12-20T08:02:22;95809.25;;;3.64;66.36
72636;BME280;60679;48.888;15.544;2023-12-20T08:04:48;95817.03;;;3.65;66.28
72636;BME280;60679;48.888;15.544;2023-12-20T08:07:13;95820.34;;;3.67;66.48
72636;BME280;60679;48.888;15.544;2023-12-20T08:09:38;95823.00;;;3.67;66.37
72636;BME280;60679;48.888;15.544;2023-12-20T08:12:04;95822.00;;;3.68;66.31
72636;BME280;60679;48.888;15.544;2023-12-20T08:14:29;95818.31;;;3.69;66.52
72636;BME280;60679;48.888;15.544;2023-12-20T08:16:55;95821.00;;;3.69;66.33
72636;BME280;60679;48.888;15.544;2023-12-20T08:19:20;95828.34;;;3.67;66.34
72636;BME280;60679;48.888;15.544;2023-12-20T08:21:45;95834.91;;;3.65;66.58
72636;BME280;60679;48.888;15.544;2023-12-20T08:24:11;95837.78;;;3.63;66.62
72636;BME280;60679;48.888;15.544;2023-12-20T08:26:36;95838.59;;;3.64;66.62
72636;BME280;60679;48.888;15.544;2023-12-20T08:29:01;95843.94;;;3.64;66.49
72636;BME280;60679;48.888;15.544;2023-12-20T08:31:27;95847.63;;;3.63;66.48
72636;BME280;60679;48.888;15.544;2023-12-20T08:33:52;95839.81;;;3.61;66.67
72636;BME280;60679;48.888;15.544;2023-12-20T08:36:19;95843.66;;;3.59;66.59
72636;BME280;60679;48.888;15.544;2023-12-20T08:38:46;95849.78;;;3.53;66.55
72636;BME280;60679;48.888;15.544;2023-12-20T08:41:12;95846.09;;;3.54;66.47
72636;BME280;60679;48.888;15.544;2023-12-20T08:43:37;95854.94;;;3.54;66.64
72636;BME280;60679;48.888;15.544;2023-12-20T08:46:05;95857.81;;;3.53;66.56
72636;BME280;60679;48.888;15.544;2023-12-20T08:48:30;95860.91;;;3.56;66.67
72636;BME280;60679;48.888;15.544;2023-12-20T08:50:56;95865.84;;;3.59;66.38
72636;BME280;60679;48.888;15.544;2023-12-20T08:53:21;95865.84;;;3.59;66.54
72636;BME280;60679;48.888;15.544;2023-12-20T08:55:47;95866.31;;;3.63;66.28
72636;BME280;60679;48.888;15.544;2023-12-20T08:58:13;95867.75;;;3.65;66.45
72636;BME280;60679;48.888;15.544;2023-12-20T09:00:39;95857.72;;;3.67;66.55
72636;BME280;60679;48.888;15.544;2023-12-20T09:03:05;95861.66;;;3.71;66.31
72636;BME280;60679;48.888;15.544;2023-12-20T09:05:30;95865.63;;;3.75;66.46
72636;BME280;60679;48.888;15.544;2023-12-20T09:07:56;95868.47;;;3.74;66.20
72636;BME280;60679;48.888;15.544;2023-12-20T09:10:21;95876.84;;;3.71;66.42
72636;BME280;60679;48.888;15.544;2023-12-20T09:12:49;95870.06;;;3.68;66.35
72636;BME280;60679;48.888;15.544;2023-12-20T09:15:14;95872.72;;;3.68;66.38
72636;BME280;60679;48.888;15.544;2023-12-20T09:17:40;95888.13;;;3.66;66.42
72636;BME280;60679;48.888;15.544;2023-12-20T09:20:07;95873.56;;;3.69;66.30
72636;BME280;60679;48.888;15.544;2023-12-20T09:22:33;95872.13;;;3.73;66.23
72636;BME280;60679;48.888;15.544;2023-12-20T09:24:59;95867.47;;;3.75;66.09
72636;BME280;60679;48.888;15.544;2023-12-20T09:27:25;95864.19;;;3.79;66.24
72636;BME280;60679;48.888;15.544;2023-12-20T09:29:50;95874.31;;;3.84;66.27
72636;BME280;60679;48.888;15.544;2023-12-20T09:32:15;95866.81;;;3.94;65.95
72636;BME280;60679;48.888;15.544;2023-12-20T09:34:41;95868.56;;;4.08;65.93
72636;BME280;60679;48.888;15.544;2023-12-20T09:37:07;95871.72;;;4.18;65.70
72636;BME280;60679;48.888;15.544;2023-12-20T09:39:33;95863.81;;;4.31;65.33
72636;BME280;60679;48.888;15.544;2023-12-20T09:42:03;95861.28;;;4.51;65.31
72636;BME280;60679;48.888;15.544;2023-12-20T09:44:30;95866.84;;;4.56;65.29
72636;BME280;60679;48.888;15.544;2023-12-20T09:46:56;95861.28;;;4.57;65.29
72636;BME280;60679;48.888;15.544;2023-12-20T09:49:22;95863.38;;;4.62;65.28
72636;BME280;60679;48.888;15.544;2023-12-20T09:51:50;95854.53;;;4.61;65.42
72636;BME280;60679;48.888;15.544;2023-12-20T09:54:20;95848.59;;;4.66;65.39
72636;BME280;60679;48.888;15.544;2023-12-20T09:56:46;95854.66;;;4.81;65.21
72636;BME280;60679;48.888;15.544;2023-12-20T09:59:12;95844.88;;;5.01;64.54
72636;BME280;60679;48.888;15.544;2023-12-20T10:01:39;95837.56;;;5.30;64.15
72636;BME280;60679;48.888;15.544;2023-12-20T10:04:06;95833.88;;;5.44;64.24
72636;BME280;60679;48.888;15.544;2023-12-20T10:06:36;95824.81;;;5.45;64.40
72636;BME280;60679;48.888;15.544;2023-12-20T10:09:02;95826.69;;;5.44;64.54
72636;BME280;60679;48.888;15.544;2023-12-20T10:11:27;95824.34;;;5.28;64.76
72636;BME280;60679;48.888;15.544;2023-12-20T10:14:01;95824.31;;;5.15;65.10
72636;BME280;60679;48.888;15.544;2023-12-20T10:16:28;95813.94;;;4.92;65.35
72636;BME280;60679;48.888;15.544;2023-12-20T10:18:54;95818.06;;;4.88;65.58
72636;BME280;60679;48.888;15.544;2023-12-20T10:21:19;95810.09;;;5.01;65.12
72636;BME280;60679;48.888;15.544;2023-12-20T10:23:45;95818.22;;;5.41;64.66
72636;BME280;60679;48.888;15.544;2023-12-20T10:26:19;95806.91;;;5.65;64.20
72636;BME280;60679;48.888;15.544;2023-12-20T10:28:45;95819.56;;;6.04;63.35
72636;BME280;60679;48.888;15.544;2023-12-20T10:31:10;95814.47;;;6.79;62.27
72636;BME280;60679;48.888;15.544;2023-12-20T10:33:50;95813.25;;;7.64;61.20
72636;BME280;60679;48.888;15.544;2023-12-20T10:36:16;95811.38;;;7.65;61.10
72636;BME280;60679;48.888;15.544;2023-12-20T10:38:42;95810.53;;;7.33;61.92
72636;BME280;60679;48.888;15.544;2023-12-20T10:41:09;95810.13;;;6.85;62.24
72636;BME280;60679;48.888;15.544;2023-12-20T10:43:36;95810.78;;;6.61;62.87
72636;BME280;60679;48.888;15.544;2023-12-20T10:46:03;95814.53;;;6.53;62.88
72636;BME280;60679;48.888;15.544;2023-12-20T10:48:30;95810.00;;;6.47;62.88
72636;BME280;60679;48.888;15.544;2023-12-20T10:50:56;95804.00;;;6.58;62.72
72636;BME280;60679;48.888;15.544;2023-12-20T10:53:22;95796.53;;;6.73;62.69
72636;BME280;60679;48.888;15.544;2023-12-20T10:55:50;95802.00;;;7.05;61.92
72636;BME280;60679;48.888;15.544;2023-12-20T10:58:18;95802.41;;;7.02;62.03
72636;BME280;60679;48.888;15.544;2023-12-20T11:00:45;95799.56;;;6.96;62.37
72636;BME280;60679;48.888;15.544;2023-12-20T11:03:13;95804.28;;;6.94;62.30
72636;BME280;60679;48.888;15.544;2023-12-20T11:05:53;95802.94;;;6.72;62.50
72636;BME280;60679;48.888;15.544;2023-12-20T11:11:12;95792.75;;;7.70;61.15
72636;BME280;60679;48.888;15.544;2023-12-20T11:13:57;95804.81;;;8.10;60.73
72636;BME280;60679;48.888;15.544;2023-12-20T11:16:24;95809.94;;;7.24;62.22
72636;BME280;60679;48.888;15.544;2023-12-20T11:18:50;95811.88;;;6.27;64.10
72636;BME280;60679;48.888;15.544;2023-12-20T11:21:16;95819.09;;;5.80;64.93
72636;BME280;60679;48.888;15.544;2023-12-20T11:23:42;95811.88;;;5.61;65.20
72636;BME280;60679;48.888;15.544;2023-12-20T11:26:07;95805.47;;;5.62;65.01
72636;BME280;60679;48.888;15.544;2023-12-20T11:28:33;95808.97;;;5.56;65.20
72636;BME280;60679;48.888;15.544;2023-12-20T11:31:01;95814.31;;;5.56;65.33
72636;BME280;60679;48.888;15.544;2023-12-20T11:33:36;95811.41;;;5.45;65.54
72636;BME280;60679;48.888;15.544;2023-12-20T11:36:02;95811.22;;;5.40;65.60
72636;BME280;60679;48.888;15.544;2023-12-20T11:38:37;95810.41;;;5.46;65.71
72636;BME280;60679;48.888;15.544;2023-12-20T11:41:05;95804.84;;;5.41;65.69
72636;BME280;60679;48.888;15.544;2023-12-20T11:46:03;95795.53;;;5.23;66.07
72636;BME280;60679;48.888;15.544;2023-12-20T11:48:30;95797.38;;;5.16;66.12
72636;BME280;60679;48.888;15.544;2023-12-20T11:50:56;95793.88;;;5.16;66.36
72636;BME280;60679;48.888;15.544;2023-12-20T11:53:21;95788.91;;;5.19;66.09
72636;BME280;60679;48.888;15.544;2023-12-20T11:55:48;95780.31;;;5.24;66.01
72636;BME280;60679;48.888;15.544;2023-12-20T11:58:14;95777.00;;;5.22;66.19
72636;BME280;60679;48.888;15.544;2023-12-20T12:00:41;95781.56;;;5.48;65.69
72636;BME280;60679;48.888;15.544;2023-12-20T12:03:08;95783.09;;;5.90;64.94
72636;BME280;60679;48.888;15.544;2023-12-20T12:05:33;95781.19;;;6.16;64.21
72636;BME280;60679;48.888;15.544;2023-12-20T12:07:58;95769.84;;;6.08;64.44
72636;BME280;60679;48.888;15.544;2023-12-20T12:10:24;95786.16;;;6.00;64.54
72636;BME280;60679;48.888;15.544;2023-12-20T12:12:49;95787.00;;;7.28;62.44
72636;BME280;60679;48.888;15.544;2023-12-20T12:15:15;95773.28;;;9.62;58.34
72636;BME280;60679;48.888;15.544;2023-12-20T12:17:40;95762.69;;;11.91;54.72
72636;BME280;60679;48.888;15.544;2023-12-20T12:20:06;95752.25;;;12.66;53.42
72636;BME280;60679;48.888;15.544;2023-12-20T12:22:32;95751.94;;;10.25;57.15
72636;BME280;60679;48.888;15.544;2023-12-20T12:24:59;95775.16;;;8.66;60.08
72636;BME280;60679;48.888;15.544;2023-12-20T12:27:27;95757.56;;;7.46;62.10
72636;BME280;60679;48.888;15.544;2023-12-20T12:30:03;95762.34;;;6.56;64.11
72636;BME280;60679;48.888;15.544;2023-12-20T12:32:29;95754.16;;;6.31;64.39
72636;BME280;60679;48.888;15.544;2023-12-20T12:34:55;95755.03;;;6.05;64.91
72636;BME280;60679;48.888;15.544;2023-12-20T12:37:20;95765.97;;;5.91;65.37
72636;BME280;60679;48.888;15.544;2023-12-20T12:39:48;95766.53;;;5.79;65.63
72636;BME280;60679;48.888;15.544;2023-12-20T12:42:13;95759.56;;;5.72;65.76
72636;BME280;60679;48.888;15.544;2023-12-20T12:44:39;95772.09;;;5.65;65.73
72636;BME280;60679;48.888;15.544;2023-12-20T12:47:04;95764.50;;;5.55;66.19
72636;BME280;60679;48.888;15.544;2023-12-20T12:49:31;95774.78;;;5.52;66.30
72636;BME280;60679;48.888;15.544;2023-12-20T12:51:57;95763.47;;;5.50;66.33
72636;BME280;60679;48.888;15.544;2023-12-20T12:54:23;95762.22;;;5.52;66.05
72636;BME280;60679;48.888;15.544;2023-12-20T12:56:49;95753.34;;;5.52;65.92
72636;BME280;60679;48.888;15.544;2023-12-20T12:59:16;95745.94;;;5.60;65.84